Time;durP1;ratioP1;P1;durP2;ratioP2;P2;SDS_P1;SDS_P2;PMS_P1;PMS_P2;Temp;Humidity;BMP_temperature;BMP_pressure;BME280_temperature;BME280_humidity;BME280_pressure;Samples;Min_cycle;Max_cycle;Signal;HPM_P1;HPM_P2
2023/01/06 00:03:09;;;;;;;7.90;3.67;;;;;14.00;99504.00;;;;16508898;28;20237;-47
2023/01/06 00:11:14;;;;;;;6.27;4.50;;;;;13.60;99501.00;;;;16511054;28;20254;-48
2023/01/06 00:19:16;;;;;;;7.27;6.57;;;;;13.00;99505.00;;;;16514998;28;20216;-48
2023/01/06 00:27:20;;;;;;;6.70;5.97;;;;;13.30;99481.00;;;;16512567;28;20233;-48
2023/01/06 00:35:23;;;;;;;7.73;5.17;;;;;13.20;99482.00;;;;16522604;28;20223;-47
2023/01/06 00:43:27;;;;;;;5.50;5.00;;;;;13.00;99474.00;;;;16518717;28;20362;-48
2023/01/06 00:51:29;;;;;;;7.03;5.13;;;;;13.20;99472.00;;;;16514092;28;20696;-47
2023/01/06 00:59:33;;;;;;;6.83;6.00;;;;;13.20;99482.00;;;;16506317;28;20211;-48
2023/01/06 01:07:39;;;;;;;5.93;5.23;;;;;13.40;99475.00;;;;16509068;28;20235;-47
2023/01/06 01:15:44;;;;;;;4.67;4.20;;;;;13.40;99468.00;;;;16524043;28;20227;-47
2023/01/06 01:23:47;;;;;;;3.77;3.50;;;;;13.30;99466.00;;;;16521847;28;20228;-48
2023/01/06 01:31:51;;;;;;;4.63;4.10;;;;;13.10;99470.00;;;;16524826;28;20295;-48
2023/01/06 01:39:53;;;;;;;5.23;4.73;;;;;13.00;99462.00;;;;16522747;28;20235;-48
2023/01/06 01:48:02;;;;;;;4.83;4.40;;;;;13.00;99463.00;;;;16523163;28;20238;-47
2023/01/06 01:56:08;;;;;;;4.47;4.07;;;;;13.00;99456.00;;;;16523951;28;20230;-47
2023/01/06 02:04:12;;;;;;;4.93;4.03;;;;;13.00;99458.00;;;;16521294;28;20270;-48
2023/01/06 02:12:15;;;;;;;4.33;3.93;;;;;13.00;99463.00;;;;16515682;28;20233;-47
2023/01/06 02:20:44;;;;;;;4.33;3.70;;;;;13.00;99447.00;;;;16508894;28;20231;-48
2023/01/06 02:29:25;;;;;;;5.07;3.90;;;;;13.10;99449.00;;;;16521359;28;20202;-48
2023/01/06 02:37:38;;;;;;;5.87;4.37;;;;;13.10;99434.00;;;;16487649;28;20738;-48
2023/01/06 02:45:48;;;;;;;4.07;3.77;;;;;13.20;99429.00;;;;16514617;28;20232;-47
2023/01/06 02:54:06;;;;;;;5.10;4.57;;;;;13.00;99427.00;;;;16499976;28;20232;-48
2023/01/06 03:02:10;;;;;;;4.80;4.00;;;;;12.90;99433.00;;;;16510093;28;20240;-48
2023/01/06 03:10:15;;;;;;;4.70;4.30;;;;;12.70;99436.00;;;;16523255;28;20219;-47
2023/01/06 03:18:18;;;;;;;4.77;4.23;;;;;12.70;99426.00;;;;16515009;28;20274;-47
2023/01/06 03:26:21;;;;;;;6.20;4.30;;;;;12.90;99425.00;;;;16516033;28;20228;-48
2023/01/06 03:34:40;;;;;;;5.87;3.67;;;;;13.00;99413.00;;;;16511983;28;20222;-48
2023/01/06 03:51:18;;;;;;;4.90;4.40;;;;;12.70;99405.00;;;;16548566;28;20266;-46
2023/01/06 03:59:27;;;;;;;4.93;4.40;;;;;12.60;99415.00;;;;16570465;28;20214;-48
2023/01/06 04:07:29;;;;;;;6.63;5.80;;;;;12.30;99426.00;;;;16525061;28;20229;-48
2023/01/06 04:15:33;;;;;;;6.50;5.30;;;;;12.40;99416.00;;;;16547496;28;20230;-48
2023/01/06 04:23:40;;;;;;;7.97;4.90;;;;;12.50;99422.00;;;;16523950;28;20243;-47
2023/01/06 04:31:44;;;;;;;7.33;4.90;;;;;12.20;99410.00;;;;16523328;28;20231;-47
2023/01/06 04:39:47;;;;;;;6.00;5.10;;;;;12.60;99402.00;;;;16525718;28;20198;-47
2023/01/06 04:47:51;;;;;;;5.00;4.53;;;;;12.50;99389.00;;;;16548390;28;20222;-47
2023/01/06 04:55:53;;;;;;;4.10;3.70;;;;;12.60;99391.00;;;;16529531;28;20221;-47
2023/01/06 05:03:57;;;;;;;3.47;2.57;;;;;11.00;99411.00;;;;16530128;28;20233;-47
2023/01/06 05:12:00;;;;;;;3.67;3.33;;;;;11.00;99414.00;;;;16532586;28;20267;-47
2023/01/06 05:20:04;;;;;;;3.23;2.87;;;;;11.60;99402.00;;;;16525839;28;20343;-48
2023/01/06 05:28:06;;;;;;;3.33;2.53;;;;;10.30;99425.00;;;;16527569;28;20235;-48
2023/01/06 05:36:12;;;;;;;2.53;2.33;;;;;10.90;99415.00;;;;16521789;28;20254;-48
2023/01/06 05:44:14;;;;;;;3.03;2.77;;;;;11.00;99395.00;;;;16529796;28;20724;-48
2023/01/06 05:52:18;;;;;;;2.63;2.07;;;;;10.80;99415.00;;;;16521617;28;20715;-47
2023/01/06 06:00:20;;;;;;;3.03;2.70;;;;;11.60;99404.00;;;;16519366;28;20681;-48
2023/01/06 06:08:24;;;;;;;3.00;2.80;;;;;11.30;99400.00;;;;16514223;28;20295;-48
2023/01/06 06:16:28;;;;;;;3.40;3.10;;;;;11.30;99400.00;;;;16510679;28;20208;-47
2023/01/06 06:24:31;;;;;;;4.20;3.37;;;;;11.80;99401.00;;;;16526540;28;20725;-47
2023/01/06 06:32:34;;;;;;;4.90;4.47;;;;;12.00;99398.00;;;;16520448;28;20752;-48
2023/01/06 06:40:38;;;;;;;7.07;5.47;;;;;12.20;99405.00;;;;16516501;28;20223;-47
2023/01/06 06:48:40;;;;;;;6.10;5.50;;;;;12.00;99405.00;;;;16509697;28;20388;-47
2023/01/06 06:56:44;;;;;;;7.53;6.27;;;;;11.90;99408.00;;;;16522048;28;20263;-48
2023/01/06 07:04:46;;;;;;;6.27;5.67;;;;;11.60;99402.00;;;;16522288;28;20386;-47
2023/01/06 07:12:50;;;;;;;5.83;5.27;;;;;12.00;99407.00;;;;16524271;28;20220;-49
2023/01/06 07:20:52;;;;;;;3.90;3.30;;;;;12.20;99403.00;;;;16511741;28;20231;-48
2023/01/06 07:28:56;;;;;;;4.50;4.00;;;;;12.40;99422.00;;;;16500882;28;20300;-48
2023/01/06 07:36:59;;;;;;;1.70;1.60;;;;;12.60;99422.00;;;;16514632;28;20243;-47
2023/01/06 07:45:02;;;;;;;2.30;2.20;;;;;12.70;99427.00;;;;16514847;28;20230;-47
2023/01/06 07:53:05;;;;;;;2.13;2.03;;;;;12.50;99450.00;;;;16514496;28;20622;-48
2023/01/06 08:01:09;;;;;;;2.57;2.37;;;;;12.70;99463.00;;;;16481953;28;20866;-48
2023/01/06 08:09:11;;;;;;;2.80;2.57;;;;;13.40;99468.00;;;;16473970;28;20227;-48
2023/01/06 08:17:15;;;;;;;7.90;3.43;;;;;13.30;99468.00;;;;16508537;28;20584;-48
2023/01/06 08:25:18;;;;;;;3.20;3.00;;;;;12.90;99478.00;;;;16519976;28;20282;-48
2023/01/06 08:33:24;;;;;;;3.60;3.30;;;;;13.40;99484.00;;;;16525251;28;20241;-48
2023/01/06 08:41:27;;;;;;;3.60;3.30;;;;;13.40;99497.00;;;;16516013;28;20730;-47
2023/01/06 08:49:30;;;;;;;3.10;2.80;;;;;13.70;99488.00;;;;16504696;28;20217;-48
2023/01/06 08:57:34;;;;;;;3.43;2.80;;;;;14.00;99500.00;;;;16501595;28;20773;-48
2023/01/06 09:05:38;;;;;;;2.87;2.67;;;;;14.40;99494.00;;;;16517114;28;20614;-48
2023/01/06 09:13:40;;;;;;;2.47;2.37;;;;;14.70;99511.00;;;;16515743;28;20728;-48
2023/01/06 09:21:45;;;;;;;2.00;1.80;;;;;14.30;99520.00;;;;16501992;28;20268;-48
2023/01/06 09:29:47;;;;;;;2.70;2.00;;;;;14.30;99519.00;;;;16514331;28;20279;-48
2023/01/06 09:37:51;;;;;;;2.70;2.50;;;;;14.40;99521.00;;;;16500742;28;20202;-47
2023/01/06 09:45:55;;;;;;;2.97;2.10;;;;;14.80;99530.00;;;;16513021;28;20242;-47
2023/01/06 09:54:01;;;;;;;2.90;2.70;;;;;14.80;99523.00;;;;16522127;28;20306;-47
2023/01/06 10:02:08;;;;;;;2.27;2.17;;;;;14.60;99519.00;;;;16519010;28;20950;-47
2023/01/06 10:10:19;;;;;;;1.93;1.80;;;;;16.00;99513.00;;;;16511365;28;20311;-47
2023/01/06 10:18:30;;;;;;;2.50;2.30;;;;;15.70;99489.00;;;;16516092;28;20246;-48
2023/01/06 10:26:38;;;;;;;2.93;1.20;;;;;15.80;99486.00;;;;16515142;28;20236;-49
2023/01/06 10:34:41;;;;;;;2.10;1.63;;;;;15.40;99471.00;;;;16511761;28;20747;-49
2023/01/06 10:42:58;;;;;;;2.27;2.10;;;;;14.70;99449.00;;;;16476037;28;20238;-48
2023/01/06 10:51:25;;;;;;;2.67;2.47;;;;;15.20;99448.00;;;;16475927;28;20234;-49
2023/01/06 10:59:30;;;;;;;3.37;3.17;;;;;14.50;99427.00;;;;16497925;28;20200;-49
2023/01/06 11:07:33;;;;;;;4.13;2.73;;;;;15.20;99434.00;;;;16515213;28;20238;-49
2023/01/06 11:15:40;;;;;;;3.20;3.00;;;;;15.40;99440.00;;;;16511017;28;20598;-49
2023/01/06 11:23:44;;;;;;;3.43;3.23;;;;;15.90;99425.00;;;;16513048;28;20235;-49
2023/01/06 11:31:49;;;;;;;2.77;2.40;;;;;15.50;99429.00;;;;16503658;28;20298;-49
2023/01/06 11:39:51;;;;;;;2.57;2.37;;;;;14.90;99420.00;;;;16524330;23;20241;-47
2023/01/06 11:47:56;;;;;;;4.80;4.50;;;;;14.40;99427.00;;;;16516390;28;20228;-48
2023/01/06 11:56:01;;;;;;;0.77;0.77;;;;;14.40;99412.00;;;;16508238;28;20359;-48
2023/01/06 12:04:12;;;;;;;3.17;1.63;;;;;14.70;99410.00;;;;16530824;28;20227;-48
2023/01/06 12:12:19;;;;;;;0.70;0.63;;;;;14.80;99405.00;;;;16536652;28;20699;-48
2023/01/06 12:20:25;;;;;;;1.30;1.20;;;;;15.50;99393.00;;;;16536677;28;20228;-47
2023/01/06 12:28:31;;;;;;;1.37;1.17;;;;;15.70;99397.00;;;;16519672;28;20779;-48
2023/01/06 12:36:38;;;;;;;1.03;0.90;;;;;15.10;99380.00;;;;16519946;28;20223;-47
2023/01/06 12:44:46;;;;;;;1.50;1.40;;;;;15.60;99385.00;;;;16528499;28;20735;-48
2023/01/06 12:52:52;;;;;;;1.03;0.80;;;;;15.70;99376.00;;;;16546931;28;20528;-47
2023/01/06 13:01:00;;;;;;;2.13;1.67;;;;;15.80;99374.00;;;;16557678;28;20223;-47
2023/01/06 13:09:24;;;;;;;1.13;1.03;;;;;14.30;99389.00;;;;16536232;28;20602;-48
2023/01/06 13:17:31;;;;;;;1.90;1.43;;;;;15.00;99378.00;;;;16542206;28;20224;-48
2023/01/06 13:25:50;;;;;;;2.00;1.80;;;;;15.20;99392.00;;;;16554168;28;20746;-48
2023/01/06 13:34:22;;;;;;;8.63;7.00;;;;;14.70;99384.00;;;;16544616;28;20279;-48
2023/01/06 13:42:32;;;;;;;4.30;3.87;;;;;15.40;99378.00;;;;16537635;28;20261;-48
2023/01/06 13:50:36;;;;;;;2.57;2.37;;;;;14.60;99375.00;;;;16546458;28;20241;-48
2023/01/06 13:58:41;;;;;;;2.77;2.57;;;;;15.60;99388.00;;;;16560848;28;20269;-47
2023/01/06 14:06:46;;;;;;;1.50;1.40;;;;;15.20;99393.00;;;;16558193;28;20223;-48
2023/01/06 14:15:01;;;;;;;3.50;3.20;;;;;15.00;99393.00;;;;16563363;28;20358;-48
2023/01/06 14:23:05;;;;;;;1.53;1.43;;;;;15.80;99389.00;;;;16537337;28;20212;-48
2023/01/06 14:31:47;;;;;;;1.50;1.40;;;;;15.80;99397.00;;;;16548408;28;20597;-47
2023/01/06 14:39:53;;;;;;;1.87;1.77;;;;;15.90;99400.00;;;;16543115;28;20230;-48
2023/01/06 14:47:59;;;;;;;3.70;3.30;;;;;14.40;99409.00;;;;16554826;28;20215;-48
2023/01/06 14:56:04;;;;;;;7.60;5.73;;;;;14.50;99411.00;;;;16539337;28;20223;-48
2023/01/06 15:04:18;;;;;;;6.67;5.53;;;;;14.10;99418.00;;;;16470567;28;20236;-47
2023/01/06 15:12:27;;;;;;;4.40;3.73;;;;;13.80;99440.00;;;;16475054;28;20220;-48
2023/01/06 15:20:32;;;;;;;2.23;2.03;;;;;14.40;99440.00;;;;16478478;28;20228;-47
2023/01/06 15:28:37;;;;;;;1.87;1.70;;;;;13.80;99441.00;;;;16487891;28;20236;-48
2023/01/06 15:36:41;;;;;;;3.93;2.37;;;;;14.50;99437.00;;;;16494823;28;20608;-47
2023/01/06 15:44:54;;;;;;;2.03;1.87;;;;;15.40;99434.00;;;;16490630;28;20257;-47
2023/01/06 15:52:59;;;;;;;3.30;2.17;;;;;15.40;99438.00;;;;16523255;28;20279;-47
2023/01/06 16:01:08;;;;;;;2.87;2.67;;;;;15.40;99439.00;;;;16539651;28;20210;-48
2023/01/06 16:09:34;;;;;;;5.70;2.93;;;;;15.60;99444.00;;;;16539216;28;20231;-48
2023/01/06 16:17:46;;;;;;;3.83;2.83;;;;;15.10;99459.00;;;;16537419;28;20225;-48
2023/01/06 16:25:50;;;;;;;7.13;4.30;;;;;15.20;99453.00;;;;16515578;28;20236;-48
2023/01/06 16:33:54;;;;;;;14.33;9.70;;;;;14.90;99457.00;;;;16538590;28;20196;-47
2023/01/06 16:50:43;;;;;;;6.23;5.70;;;;;13.70;99461.00;;;;16535054;28;20224;-47
2023/01/06 16:58:46;;;;;;;9.37;5.80;;;;;12.90;99470.00;;;;16548544;28;20216;-47
2023/01/06 17:06:50;;;;;;;11.93;8.50;;;;;13.10;99463.00;;;;16533389;28;20224;-47
2023/01/06 17:14:52;;;;;;;8.70;7.33;;;;;13.20;99467.00;;;;16511092;28;20222;-48
2023/01/06 17:22:56;;;;;;;9.23;7.13;;;;;12.90;99466.00;;;;16506049;28;20204;-48
2023/01/06 17:31:01;;;;;;;7.90;4.77;;;;;12.60;99468.00;;;;16525107;28;20235;-48
2023/01/06 17:39:13;;;;;;;6.23;5.50;;;;;12.80;99458.00;;;;16539254;28;20242;-48
2023/01/06 17:47:27;;;;;;;19.53;16.93;;;;;13.20;99452.00;;;;16521979;28;20231;-48
2023/01/06 17:55:44;;;;;;;11.43;8.83;;;;;12.80;99456.00;;;;16513382;28;20701;-49
2023/01/06 18:03:47;;;;;;;6.87;6.20;;;;;13.30;99455.00;;;;16537782;28;20222;-48
2023/01/06 18:11:52;;;;;;;5.73;4.20;;;;;13.10;99464.00;;;;16521095;28;20269;-48
2023/01/06 18:19:54;;;;;;;12.70;9.47;;;;;12.70;99471.00;;;;16515934;28;20241;-48
2023/01/06 18:27:58;;;;;;;6.20;5.70;;;;;12.10;99492.00;;;;16524966;28;20228;-48
2023/01/06 18:36:01;;;;;;;5.57;4.90;;;;;12.80;99485.00;;;;16514468;28;20241;-49
2023/01/06 18:44:06;;;;;;;6.07;4.00;;;;;12.70;99482.00;;;;16519086;28;20578;-48
2023/01/06 18:52:30;;;;;;;7.47;6.23;;;;;11.70;99493.00;;;;16524318;28;20200;-49
2023/01/06 19:00:37;;;;;;;19.53;11.87;;;;;12.10;99494.00;;;;16512584;28;20215;-48
2023/01/06 19:08:41;;;;;;;8.23;7.27;;;;;12.60;99483.00;;;;16517544;28;20550;-48
2023/01/06 19:16:49;;;;;;;11.80;7.50;;;;;11.90;99481.00;;;;16468726;28;20223;-48
2023/01/06 19:25:03;;;;;;;8.80;7.40;;;;;12.00;99481.00;;;;16525603;28;20666;-49
2023/01/06 19:33:28;;;;;;;15.50;11.10;;;;;11.90;99482.00;;;;16510335;28;20195;-48
2023/01/06 19:41:32;;;;;;;15.37;12.67;;;;;11.90;99484.00;;;;16500541;28;20290;-48
2023/01/06 19:49:39;;;;;;;13.50;12.10;;;;;11.90;99491.00;;;;16492435;28;20306;-48
2023/01/06 19:57:43;;;;;;;10.90;9.77;;;;;11.70;99489.00;;;;16504157;28;20238;-49
2023/01/06 20:05:47;;;;;;;10.27;8.20;;;;;11.90;99489.00;;;;16515519;28;20224;-49
2023/01/06 20:13:50;;;;;;;9.43;8.50;;;;;12.10;99487.00;;;;16500105;28;20729;-49
2023/01/06 20:21:54;;;;;;;7.33;6.73;;;;;12.90;99479.00;;;;16519582;28;20229;-49
2023/01/06 20:29:57;;;;;;;11.97;10.43;;;;;13.10;99464.00;;;;16530435;28;20370;-49
2023/01/06 20:38:00;;;;;;;11.30;10.20;;;;;12.80;99468.00;;;;16524749;28;20605;-48
2023/01/06 20:46:03;;;;;;;9.87;8.97;;;;;12.90;99468.00;;;;16536278;28;20233;-49
2023/01/06 20:54:06;;;;;;;8.83;8.00;;;;;13.30;99465.00;;;;16526063;28;20199;-49
2023/01/06 21:02:09;;;;;;;9.33;8.43;;;;;13.00;99458.00;;;;16534025;28;20236;-49
2023/01/06 21:10:13;;;;;;;10.70;9.70;;;;;12.10;99469.00;;;;16526441;28;20233;-49
2023/01/06 21:18:15;;;;;;;7.40;6.60;;;;;12.10;99458.00;;;;16533484;28;20226;-48
2023/01/06 21:26:19;;;;;;;4.30;3.87;;;;;12.80;99461.00;;;;16545623;28;20237;-48
2023/01/06 21:34:21;;;;;;;2.80;2.60;;;;;13.10;99452.00;;;;16546695;28;20325;-48
2023/01/06 21:50:45;;;;;;;3.37;1.80;;;;;13.40;99439.00;;;;16544182;28;20258;-48
2023/01/06 21:58:49;;;;;;;4.00;2.90;;;;;13.40;99447.00;;;;16551937;28;20225;-49
2023/01/06 22:06:53;;;;;;;2.03;1.83;;;;;13.70;99448.00;;;;16539573;28;20223;-48
2023/01/06 22:14:57;;;;;;;1.80;1.70;;;;;13.70;99444.00;;;;16556081;28;20223;-49
2023/01/06 22:23:01;;;;;;;1.80;1.70;;;;;13.90;99450.00;;;;16539964;28;20282;-49
2023/01/06 22:31:05;;;;;;;1.90;1.63;;;;;13.90;99439.00;;;;16546547;28;20222;-48
2023/01/06 22:39:08;;;;;;;1.63;1.53;;;;;13.80;99431.00;;;;16530895;28;20240;-47
2023/01/06 22:47:12;;;;;;;2.10;1.97;;;;;13.80;99437.00;;;;16545386;28;20237;-48
2023/01/06 22:55:14;;;;;;;1.57;1.47;;;;;13.70;99428.00;;;;16533496;28;20216;-47
2023/01/06 23:03:18;;;;;;;13.30;11.90;;;;;14.30;99428.00;;;;16526390;28;20214;-47
2023/01/06 23:11:21;;;;;;;2.97;2.53;;;;;12.70;99435.00;;;;16510329;28;20228;-48
2023/01/06 23:19:25;;;;;;;3.40;3.10;;;;;12.50;99429.00;;;;16512833;28;20233;-49
2023/01/06 23:27:27;;;;;;;3.43;2.83;;;;;12.50;99430.00;;;;16513308;28;20232;-48
2023/01/06 23:35:31;;;;;;;10.87;8.00;;;;;12.40;99419.00;;;;16521147;28;20306;-48
2023/01/06 23:43:35;;;;;;;2.90;2.40;;;;;12.20;99426.00;;;;16517622;28;20695;-49
2023/01/06 23:51:39;;;;;;;2.90;2.50;;;;;12.60;99423.00;;;;16516656;28;20897;-48
2023/01/06 23:59:43;;;;;;;2.90;2.70;;;;;12.20;99421.00;;;;16516493;28;20220;-48
